San Antonio, TX (78201)

11:06 PM CST on February 09, 2016 (GMT -0600)
Dellview | | Change Station
CLOSE
Current Station
Personal Weather Station
Location: San Antonio, TX
Elevation: 823 ft
Nearby Weather Stations

Elev 823 ft 29.50 °N, 98.54 °W | Updated 18 seconds ago

Clear
Clear
48.6 °F
Feels Like 49 °F
N
0.0
Wind Variable Wind from SW
Gusts 0.0 mph

Today
High -- | Low -- °F
--% Chance of Precip.
Yesterday
High -- | Low -- °F
Precip. -- in
Pressure 30.28 in
Visibility 10.0 miles
Clouds Clear
Windchill 49 °F
Dew Point 33 °F
Humidity 55%
Rainfall 0.00 in
Snow Depth Not available.
7:18 AM 6:18 PM
Waxing Crescent, 3% visible
METAR KSAT 100451Z 24003KT 10SM CLR 11/00 A3031 RMK AO2 SLP254 T01060000
Pressure 30.28 in
Visibility 10.0 miles
Clouds Clear
Windchill 49 °F
Dew Point 33 °F
Humidity 55%
Rainfall 0.00 in
Snow Depth Not available.
7:18 AM 6:18 PM
Waxing Crescent, 3% visible
METAR KSAT 100451Z 24003KT 10SM CLR 11/00 A3031 RMK AO2 SLP254 T01060000

10-Day Weather Forecast

Almanac

Astronomy

Feb. 09, 2016 Rise Set
Actual Time
Civil Twilight
Nautical Twilight
Astronomical Twilight
Moon
Length of Visible Light
Length of Day
Tomorrow will be .
, % of the Moon is Illuminated

Today's Extremes

State Highs State Lows

Community

WunderPhotos

Upload Photos

1,891,818 photos uploaded!

WunderBlog® & News

Nearby

Air Quality

  Air Quality AQ Index Pollutant
Not available.

Snow Depth

Station Depth Elevation

Earthquake Activity

City Distance Mag. Time & Date
Minimum magnitude displayed is 2.5.

Coastal Water Temperatures

Place Temperature

Stations

Nearby Weather Stations

Station Location Temp. Windchill Dew Point Humidity Wind Precip. Elev Updated Type
                   

Watches & Warnings

There are currently no watches in effect.